Fannett, Pennsylvania
Current Conditions -  °F | °C
As of 9:53 PM on Thursday 27 Nov 2014 (Local Time) from KAOO Reporting Station
Overcast Overcast  
Wind Chill: 18°   Ceiling: 2800
Heat Index: 29°   Visibility: 10mi
Dew Point: 22°   Wind: 14mph
Humidity: 75%   Direction: 290°WNW
Pressure: 30.12"   Gusts: NA
Location:  40.2376°N, 77.7083°W
Report Text: KAOO 280253Z AUTO 29012KT 10SM SCT023 BKN028 OVC034 M02/M06 A3012 RMK AO2 SLP216 60000 T10171056 51013
Loading
Personal Weather Stations






























Interactive Weather Map New forecast layout! Learn more

10-Day Weather Forecast

Advertisements
Track Severe Weather on mobile